Time;durP1;ratioP1;P1;durP2;ratioP2;P2;SDS_P1;SDS_P2;PMS_P1;PMS_P2;Temp;Humidity;BMP_temperature;BMP_pressure;BME280_temperature;BME280_humidity;BME280_pressure;Samples;Min_cycle;Max_cycle;Signal;HPM_P1;HPM_P2
2023/09/12 00:00:49;;;;;;;6.03;1.50;;;18.30;99.90;;;;;;5030314;28;20174;-80
2023/09/12 00:03:20;;;;;;;2.85;1.25;;;18.30;99.90;;;;;;5031657;28;20170;-78
2023/09/12 00:05:56;;;;;;;2.65;1.35;;;18.30;99.90;;;;;;5031445;28;20170;-77
2023/09/12 00:08:22;;;;;;;6.47;1.70;;;18.30;99.90;;;;;;5031515;28;20928;-78
2023/09/12 00:10:59;;;;;;;3.40;1.30;;;18.20;99.90;;;;;;5031155;28;20177;-80
2023/09/12 00:13:25;;;;;;;3.30;1.50;;;18.10;99.90;;;;;;5031345;28;20173;-77
2023/09/12 00:15:50;;;;;;;3.53;1.63;;;18.20;99.90;;;;;;5031250;28;20174;-79
2023/09/12 00:18:16;;;;;;;3.92;1.58;;;18.10;99.90;;;;;;5013346;28;20661;-77
2023/09/12 00:20:42;;;;;;;5.10;1.58;;;18.10;99.90;;;;;;5031483;28;20169;-78
2023/09/12 00:23:07;;;;;;;4.22;1.48;;;18.10;99.90;;;;;;5031157;28;20601;-78
2023/09/12 00:25:33;;;;;;;4.03;1.60;;;18.10;99.90;;;;;;5031298;28;20271;-78
2023/09/12 00:27:58;;;;;;;6.55;1.80;;;18.00;99.90;;;;;;5031178;28;20680;-78
2023/09/12 00:30:24;;;;;;;2.42;1.27;;;18.00;99.90;;;;;;5030956;28;20569;-79
2023/09/12 00:32:49;;;;;;;3.45;1.65;;;18.00;99.90;;;;;;5013551;28;20541;-78
2023/09/12 00:35:15;;;;;;;4.18;1.38;;;17.90;99.90;;;;;;5030925;28;20651;-78
2023/09/12 00:37:41;;;;;;;3.47;1.67;;;18.00;99.90;;;;;;5030877;28;20169;-77
2023/09/12 00:40:07;;;;;;;4.25;1.77;;;18.00;99.90;;;;;;5013447;28;20678;-78
2023/09/12 00:42:32;;;;;;;1.90;1.27;;;18.10;99.90;;;;;;5031025;28;20170;-77
2023/09/12 00:44:58;;;;;;;4.15;1.20;;;18.00;99.90;;;;;;5030889;28;20176;-79
2023/09/12 00:47:25;;;;;;;3.42;1.30;;;18.10;99.90;;;;;;5030637;28;20170;-77
2023/09/12 00:49:52;;;;;;;4.80;1.50;;;18.10;99.90;;;;;;5030947;28;20273;-77
2023/09/12 00:52:20;;;;;;;3.03;1.30;;;18.10;99.90;;;;;;5013208;28;20174;-77
2023/09/12 00:54:46;;;;;;;3.92;1.73;;;18.10;99.90;;;;;;4996829;28;20181;-77
2023/09/12 00:57:11;;;;;;;4.07;1.45;;;18.20;99.90;;;;;;5030633;28;20252;-77
2023/09/12 00:59:37;;;;;;;7.50;1.65;;;18.20;99.90;;;;;;5012785;28;20225;-78
2023/09/12 01:02:03;;;;;;;1.58;1.30;;;18.20;99.90;;;;;;4993499;28;20187;-78
2023/09/12 01:04:29;;;;;;;3.85;1.40;;;18.30;99.90;;;;;;5020840;28;20188;-78
2023/09/12 01:06:55;;;;;;;3.47;1.60;;;18.30;99.90;;;;;;5030477;28;20182;-79
2023/09/12 01:09:21;;;;;;;3.13;1.60;;;18.40;99.90;;;;;;5038398;28;20223;-79
2023/09/12 01:11:46;;;;;;;4.50;1.63;;;18.50;99.90;;;;;;5051115;28;20170;-79
2023/09/12 01:14:12;;;;;;;3.58;1.63;;;18.40;99.90;;;;;;5036471;28;20253;-78
2023/09/12 01:16:38;;;;;;;3.60;1.42;;;18.50;99.90;;;;;;5030782;28;20256;-79
2023/09/12 01:19:06;;;;;;;3.67;1.60;;;18.60;99.90;;;;;;5012970;28;20174;-79
2023/09/12 01:21:45;;;;;;;2.55;1.38;;;18.50;99.90;;;;;;5012944;28;20177;-78
2023/09/12 01:24:17;;;;;;;3.30;1.38;;;18.60;99.90;;;;;;5030945;28;20220;-79
2023/09/12 01:26:51;;;;;;;3.45;1.42;;;18.60;99.90;;;;;;5047462;28;20214;-78
2023/09/12 01:29:19;;;;;;;4.78;1.45;;;18.60;99.90;;;;;;5052830;28;20212;-78
2023/09/12 01:31:47;;;;;;;3.72;1.25;;;18.60;99.90;;;;;;5047180;28;20169;-80
2023/09/12 01:34:14;;;;;;;2.95;1.58;;;18.60;99.90;;;;;;5043437;28;20196;-78
2023/09/12 01:36:39;;;;;;;4.15;1.52;;;18.60;99.90;;;;;;5053304;28;20161;-78
2023/09/12 01:39:05;;;;;;;4.13;1.50;;;18.60;99.90;;;;;;5053360;28;20265;-78
2023/09/12 01:41:34;;;;;;;3.10;1.45;;;18.60;99.90;;;;;;5051161;28;20193;-79
2023/09/12 01:44:01;;;;;;;4.53;1.73;;;18.60;99.90;;;;;;5054208;28;20177;-79
2023/09/12 01:46:28;;;;;;;4.40;1.98;;;18.70;99.90;;;;;;5054076;28;20177;-78
2023/09/12 01:48:56;;;;;;;2.35;1.63;;;18.70;99.90;;;;;;5054095;28;20224;-78
2023/09/12 01:51:23;;;;;;;5.38;1.70;;;18.70;99.90;;;;;;5054713;28;20184;-79
2023/09/12 01:53:50;;;;;;;3.88;1.50;;;18.80;99.90;;;;;;5054141;28;20173;-79
2023/09/12 01:56:17;;;;;;;8.90;1.35;;;18.70;99.90;;;;;;5053953;28;20247;-79
2023/09/12 01:58:43;;;;;;;2.25;1.40;;;20.20;99.90;;;;;;5047173;28;20652;-79
2023/09/12 02:01:09;;;;;;;4.20;1.23;;;18.80;99.90;;;;;;5033769;28;20201;-78
2023/09/12 02:03:35;;;;;;;3.85;1.10;;;18.70;99.90;;;;;;5033927;28;20194;-79
2023/09/12 02:06:00;;;;;;;2.17;1.10;;;18.80;99.90;;;;;;5033857;28;20533;-79
2023/09/12 02:08:26;;;;;;;4.05;1.60;;;18.80;99.90;;;;;;5033672;28;20224;-78
2023/09/12 02:10:51;;;;;;;6.25;1.70;;;18.70;99.90;;;;;;5033497;28;20530;-79
2023/09/12 02:13:17;;;;;;;3.58;1.60;;;18.70;99.90;;;;;;5033438;28;20180;-79
2023/09/12 02:15:42;;;;;;;4.15;1.48;;;18.60;99.90;;;;;;5015207;28;20174;-79
2023/09/12 02:18:08;;;;;;;2.35;1.60;;;18.60;99.90;;;;;;5033155;28;20174;-78
2023/09/12 02:20:38;;;;;;;5.00;1.48;;;18.60;99.90;;;;;;5040497;28;20223;-79
2023/09/12 02:23:04;;;;;;;6.68;1.60;;;18.50;99.90;;;;;;5053544;28;20291;-78
2023/09/12 02:25:29;;;;;;;2.75;1.48;;;18.40;99.90;;;;;;5039242;28;20259;-79
2023/09/12 02:27:55;;;;;;;5.07;1.13;;;18.30;99.90;;;;;;5015519;28;20541;-80
2023/09/12 02:30:20;;;;;;;4.38;1.45;;;18.30;99.90;;;;;;5033446;28;20185;-80
2023/09/12 02:32:46;;;;;;;4.72;1.40;;;18.30;99.90;;;;;;5033455;28;20178;-79
2023/09/12 02:35:12;;;;;;;6.57;1.15;;;18.30;99.90;;;;;;5033502;28;20641;-80
2023/09/12 02:37:38;;;;;;;4.50;1.10;;;;;;;;;;5046948;28;20204;-78
2023/09/12 02:40:07;;;;;;;2.47;1.08;;;18.20;99.90;;;;;;5053097;28;20199;-78
2023/09/12 02:42:33;;;;;;;2.75;1.17;;;18.20;99.90;;;;;;5053127;28;20165;-79
2023/09/12 02:44:58;;;;;;;4.18;1.30;;;18.30;99.90;;;;;;5053259;28;20668;-79
2023/09/12 02:47:24;;;;;;;2.88;1.20;;;18.30;99.90;;;;;;5035111;28;20525;-78
2023/09/12 02:49:49;;;;;;;1.42;0.90;;;18.20;99.90;;;;;;5053156;28;20311;-79
2023/09/12 02:52:15;;;;;;;1.85;1.00;;;18.10;99.90;;;;;;5052843;28;20174;-79
2023/09/12 02:54:41;;;;;;;3.90;1.23;;;18.10;99.90;;;;;;5052770;28;20177;-79
2023/09/12 02:57:06;;;;;;;3.80;1.15;;;18.00;99.90;;;;;;5033885;28;20182;-80
2023/09/12 02:59:32;;;;;;;2.17;1.27;;;18.00;99.90;;;;;;5014869;28;20208;-79
2023/09/12 03:01:58;;;;;;;2.35;1.13;;;18.00;99.90;;;;;;5032739;28;20178;-80
2023/09/12 03:04:27;;;;;;;2.35;1.27;;;18.00;99.90;;;;;;5032569;28;20174;-79
2023/09/12 03:06:52;;;;;;;2.28;1.23;;;17.90;99.90;;;;;;5032449;28;20227;-79
2023/09/12 03:09:19;;;;;;;2.63;1.30;;;18.00;99.90;;;;;;5032525;28;20241;-77
2023/09/12 03:11:45;;;;;;;2.20;1.17;;;18.00;99.90;;;;;;5032353;28;20231;-80
2023/09/12 03:14:10;;;;;;;1.63;1.20;;;18.00;99.90;;;;;;5032455;28;20718;-78
2023/09/12 03:16:37;;;;;;;3.38;1.60;;;;;;;;;;5032292;28;20595;-78
2023/09/12 03:19:03;;;;;;;5.68;1.55;;;18.00;99.90;;;;;;5032175;28;20184;-79
2023/09/12 03:21:29;;;;;;;1.80;1.02;;;18.10;99.90;;;;;;5032054;28;20174;-79
2023/09/12 03:23:55;;;;;;;2.63;1.10;;;18.10;99.90;;;;;;5032119;28;20192;-79
2023/09/12 03:26:21;;;;;;;4.10;1.50;;;18.20;99.90;;;;;;5052109;28;20221;-79
2023/09/12 03:28:50;;;;;;;5.70;0.88;;;18.20;99.90;;;;;;5029818;28;20201;-80
2023/09/12 03:31:16;;;;;;;2.45;1.33;;;18.20;99.90;;;;;;5032072;28;20206;-81
2023/09/12 03:33:42;;;;;;;3.25;1.15;;;18.20;99.90;;;;;;5032102;28;20206;-80
2023/09/12 03:36:09;;;;;;;2.28;1.30;;;18.20;99.90;;;;;;5031815;28;20174;-80
2023/09/12 03:38:35;;;;;;;4.10;1.58;;;18.20;99.90;;;;;;5031939;28;20231;-80
2023/09/12 03:41:01;;;;;;;4.10;1.30;;;18.30;99.90;;;;;;5031738;28;20174;-80
2023/09/12 03:43:27;;;;;;;4.60;1.20;;;18.30;99.90;;;;;;5013751;28;20205;-80
2023/09/12 03:45:53;;;;;;;3.15;1.25;;;18.20;99.90;;;;;;5031710;28;20208;-80
2023/09/12 03:48:19;;;;;;;3.22;1.60;;;18.20;99.90;;;;;;5031506;28;20194;-80
2023/09/12 03:50:45;;;;;;;3.13;1.38;;;18.20;99.90;;;;;;5032022;28;20720;-77
2023/09/12 03:53:14;;;;;;;2.47;1.30;;;18.20;99.90;;;;;;5031569;28;20217;-78
2023/09/12 03:55:40;;;;;;;3.30;1.38;;;18.10;99.90;;;;;;5031597;28;20169;-78
2023/09/12 03:58:05;;;;;;;2.33;1.20;;;18.40;99.90;;;;;;5031441;28;20808;-78
2023/09/12 04:00:31;;;;;;;3.83;1.45;;;18.40;99.90;;;;;;5014328;28;20268;-78
2023/09/12 04:02:56;;;;;;;5.75;1.45;;;18.30;99.90;;;;;;5030083;28;20177;-78
2023/09/12 04:05:22;;;;;;;2.30;1.13;;;18.30;99.90;;;;;;5029791;28;20607;-79
2023/09/12 04:07:48;;;;;;;3.08;1.33;;;18.40;99.90;;;;;;5030367;28;20185;-79
2023/09/12 04:10:13;;;;;;;3.83;1.50;;;18.40;99.90;;;;;;5031413;28;20205;-78
2023/09/12 04:12:39;;;;;;;3.45;1.83;;;18.30;99.90;;;;;;5031635;28;20247;-78
2023/09/12 04:15:06;;;;;;;3.03;1.58;;;18.40;99.90;;;;;;5031544;28;20569;-78
2023/09/12 04:17:31;;;;;;;4.03;1.60;;;18.40;99.90;;;;;;5031353;28;20181;-78
2023/09/12 04:19:57;;;;;;;4.07;1.30;;;18.40;99.90;;;;;;5031440;28;20178;-77
2023/09/12 04:22:22;;;;;;;2.58;1.52;;;18.40;99.90;;;;;;5030904;28;20185;-77
2023/09/12 04:24:48;;;;;;;3.55;1.50;;;18.50;99.90;;;;;;5013388;28;20280;-77
2023/09/12 04:27:14;;;;;;;2.65;1.42;;;18.50;99.90;;;;;;5031022;28;20174;-78
2023/09/12 04:29:39;;;;;;;2.40;1.33;;;18.50;99.90;;;;;;5013243;28;20300;-79
2023/09/12 04:32:05;;;;;;;3.90;1.48;;;18.50;99.90;;;;;;5031449;28;20170;-79
2023/09/12 04:34:31;;;;;;;3.05;1.42;;;18.50;99.90;;;;;;5031124;28;20254;-79
2023/09/12 04:36:57;;;;;;;2.85;1.40;;;18.50;99.90;;;;;;5031082;28;20220;-79
2023/09/12 04:39:23;;;;;;;2.38;1.30;;;18.50;99.90;;;;;;4996928;28;20196;-79
2023/09/12 04:41:48;;;;;;;7.00;1.48;;;18.50;99.90;;;;;;5031313;28;20170;-79
2023/09/12 04:44:14;;;;;;;2.75;1.35;;;18.50;99.90;;;;;;5031059;28;20735;-79
2023/09/12 04:46:40;;;;;;;5.50;1.60;;;;;;;;;;5031079;28;20252;-79
2023/09/12 04:49:06;;;;;;;2.97;1.20;;;18.50;99.90;;;;;;5031031;28;20576;-79
2023/09/12 04:51:31;;;;;;;4.30;1.50;;;18.50;99.90;;;;;;5031022;28;20209;-79
2023/09/12 04:53:57;;;;;;;4.22;1.83;;;18.50;99.90;;;;;;5031088;28;20169;-79
2023/09/12 04:56:25;;;;;;;4.28;1.17;;;18.60;99.90;;;;;;5031215;28;20220;-80
2023/09/12 04:58:51;;;;;;;3.13;1.48;;;18.60;99.90;;;;;;5031169;28;20176;-79
2023/09/12 05:01:17;;;;;;;4.57;1.60;;;18.60;99.90;;;;;;5031183;28;20174;-79
2023/09/12 05:03:43;;;;;;;3.65;1.17;;;;;;;;;;5031018;28;20617;-79
2023/09/12 05:06:10;;;;;;;3.58;1.40;;;18.60;99.90;;;;;;5031071;28;20216;-79
2023/09/12 05:08:35;;;;;;;5.30;1.50;;;18.50;99.90;;;;;;5013324;28;20209;-79
2023/09/12 05:11:02;;;;;;;2.25;1.35;;;18.50;99.90;;;;;;5030672;28;20189;-79
2023/09/12 05:13:29;;;;;;;5.78;1.45;;;18.50;99.90;;;;;;5030826;28;20178;-79
2023/09/12 05:15:55;;;;;;;4.80;1.80;;;18.60;99.90;;;;;;5030885;28;20177;-80
2023/09/12 05:18:21;;;;;;;3.35;1.20;;;18.60;99.90;;;;;;5034541;28;20249;-80
2023/09/12 05:20:46;;;;;;;7.65;1.70;;;18.60;99.90;;;;;;5034942;28;20216;-80
2023/09/12 05:23:12;;;;;;;2.97;1.30;;;18.60;99.90;;;;;;5035086;28;20185;-80
2023/09/12 05:25:38;;;;;;;6.68;1.75;;;18.60;99.90;;;;;;5033564;28;20359;-79
2023/09/12 05:28:04;;;;;;;2.90;1.55;;;18.60;99.90;;;;;;5034290;28;20249;-80
2023/09/12 05:30:30;;;;;;;2.33;1.40;;;18.60;99.90;;;;;;5017681;28;20193;-79
2023/09/12 05:32:55;;;;;;;4.22;1.45;;;18.60;99.90;;;;;;5016574;28;20178;-80
2023/09/12 05:35:21;;;;;;;4.15;1.90;;;18.60;99.90;;;;;;5016996;28;20235;-80
2023/09/12 05:37:47;;;;;;;3.53;1.80;;;18.50;99.90;;;;;;5034382;28;20706;-81
2023/09/12 05:40:13;;;;;;;5.43;2.05;;;18.50;99.90;;;;;;5034320;28;20174;-81
2023/09/12 05:42:38;;;;;;;4.20;1.70;;;18.50;99.90;;;;;;5034217;28;20173;-79
2023/09/12 05:45:05;;;;;;;4.40;1.75;;;18.50;99.90;;;;;;5016484;28;20279;-80
2023/09/12 05:47:31;;;;;;;4.65;1.60;;;18.50;99.90;;;;;;5034341;28;20175;-79
2023/09/12 05:49:59;;;;;;;5.13;1.80;;;18.50;99.90;;;;;;5016439;28;20218;-80
2023/09/12 05:52:24;;;;;;;5.35;1.75;;;18.60;99.90;;;;;;5032889;28;20540;-80
2023/09/12 05:54:50;;;;;;;3.67;1.80;;;18.70;99.90;;;;;;5034296;28;20174;-80
2023/09/12 05:57:16;;;;;;;3.80;1.63;;;18.60;99.90;;;;;;5034153;28;20170;-80
2023/09/12 05:59:41;;;;;;;4.45;1.75;;;18.60;99.90;;;;;;5016176;28;20182;-79
2023/09/12 06:02:09;;;;;;;6.65;1.83;;;18.60;99.90;;;;;;5032273;28;20178;-77
2023/09/12 06:04:35;;;;;;;3.90;1.65;;;18.70;99.90;;;;;;5033620;28;20253;-78
2023/09/12 06:07:04;;;;;;;11.40;2.05;;;18.80;99.90;;;;;;5033372;28;20180;-78
2023/09/12 06:09:30;;;;;;;3.45;1.95;;;18.70;99.90;;;;;;5023604;28;20210;-78
2023/09/12 06:11:55;;;;;;;4.53;1.60;;;18.70;99.90;;;;;;5015339;28;20166;-79
2023/09/12 06:14:21;;;;;;;2.35;1.80;;;17.80;99.90;;;;;;5033459;28;20177;-78
2023/09/12 06:16:46;;;;;;;4.47;1.98;;;18.70;99.90;;;;;;5030791;28;20165;-78
2023/09/12 06:19:14;;;;;;;3.38;1.80;;;18.70;99.90;;;;;;5041998;28;20217;-78
2023/09/12 06:21:40;;;;;;;6.70;2.00;;;18.80;99.90;;;;;;5053326;28;20185;-78
2023/09/12 06:24:32;;;;;;;10.45;2.22;;;18.70;99.90;;;;;;5019998;28;20213;-77
2023/09/12 06:26:58;;;;;;;3.92;1.90;;;18.80;99.90;;;;;;5011676;28;20201;-79
2023/09/12 06:29:23;;;;;;;6.00;2.00;;;18.80;99.90;;;;;;5014320;28;20243;-78
2023/09/12 06:31:49;;;;;;;6.53;1.92;;;18.80;99.90;;;;;;5015502;28;20257;-79
2023/09/12 06:34:15;;;;;;;5.72;2.25;;;;;;;;;;5033301;28;20248;-78
2023/09/12 06:36:44;;;;;;;7.50;2.50;;;18.70;99.90;;;;;;5015572;28;20166;-78
2023/09/12 06:39:10;;;;;;;3.75;2.33;;;18.80;99.90;;;;;;5014852;28;20174;-78
2023/09/12 06:41:36;;;;;;;5.38;2.20;;;20.00;99.90;;;;;;5032588;28;20184;-77
2023/09/12 06:44:02;;;;;;;5.15;2.13;;;18.80;99.90;;;;;;5015652;28;20204;-77
2023/09/12 06:46:28;;;;;;;5.95;2.10;;;18.80;99.90;;;;;;5032966;28;20637;-78
2023/09/12 06:48:54;;;;;;;4.78;2.35;;;18.90;99.90;;;;;;5020369;28;20217;-78
2023/09/12 06:51:25;;;;;;;5.55;2.17;;;18.80;99.90;;;;;;5052583;28;20196;-78
2023/09/12 06:53:51;;;;;;;6.25;1.85;;;18.80;99.90;;;;;;5039723;28;20188;-77
2023/09/12 06:56:16;;;;;;;5.47;2.28;;;18.70;99.90;;;;;;4998738;28;20534;-76
2023/09/12 06:58:42;;;;;;;3.20;1.90;;;18.70;99.90;;;;;;5032660;28;20186;-76
2023/09/12 07:01:07;;;;;;;6.15;2.20;;;18.70;99.90;;;;;;5052414;28;20168;-78
2023/09/12 07:03:35;;;;;;;5.45;2.05;;;18.70;99.90;;;;;;5023375;28;20805;-76
2023/09/12 07:06:01;;;;;;;4.57;2.15;;;18.70;99.90;;;;;;5012624;28;20195;-76
2023/09/12 07:08:28;;;;;;;6.70;2.22;;;18.70;99.90;;;;;;5012393;28;20273;-76
2023/09/12 07:10:54;;;;;;;4.88;2.58;;;18.80;99.90;;;;;;5012797;28;20205;-75
2023/09/12 07:13:21;;;;;;;6.97;2.40;;;18.80;99.90;;;;;;5029217;28;20633;-76
2023/09/12 07:15:47;;;;;;;7.50;2.47;;;18.90;99.90;;;;;;5032363;28;20174;-76
2023/09/12 07:18:14;;;;;;;7.30;2.60;;;18.90;99.90;;;;;;5032069;28;20178;-76
2023/09/12 07:20:40;;;;;;;5.80;2.40;;;18.90;99.90;;;;;;5032149;28;20173;-76
2023/09/12 07:23:06;;;;;;;6.20;2.70;;;19.00;99.90;;;;;;5031956;28;20180;-76
2023/09/12 07:25:38;;;;;;;5.95;2.53;;;19.10;99.90;;;;;;5031847;28;20275;-76
2023/09/12 07:28:03;;;;;;;7.20;2.67;;;19.10;99.90;;;;;;5014174;28;20708;-75
2023/09/12 07:30:30;;;;;;;9.38;3.08;;;19.10;99.90;;;;;;5031900;28;20190;-77
2023/09/12 07:32:55;;;;;;;6.43;2.83;;;19.20;99.90;;;;;;5031746;28;20261;-77
2023/09/12 07:35:23;;;;;;;7.90;3.03;;;19.20;99.90;;;;;;5031714;28;20671;-76
2023/09/12 07:37:49;;;;;;;6.80;2.72;;;19.20;99.90;;;;;;5031320;28;20652;-75
2023/09/12 07:40:15;;;;;;;6.07;2.83;;;19.10;99.90;;;;;;5012537;28;20178;-76
2023/09/12 07:42:41;;;;;;;7.82;2.90;;;19.10;99.90;;;;;;5031880;28;20167;-77
2023/09/12 07:45:07;;;;;;;6.22;2.65;;;19.20;99.90;;;;;;5013998;28;20182;-78
2023/09/12 07:47:33;;;;;;;7.57;3.03;;;19.20;99.90;;;;;;5031846;28;20174;-76
2023/09/12 07:50:00;;;;;;;6.28;3.25;;;19.30;99.90;;;;;;5031397;28;20656;-76
2023/09/12 07:52:26;;;;;;;9.20;3.10;;;19.40;99.90;;;;;;5031095;28;20189;-75
2023/09/12 07:54:56;;;;;;;3.75;2.40;;;19.40;99.90;;;;;;5031718;28;20304;-76
2023/09/12 07:57:22;;;;;;;7.82;2.25;;;19.30;99.90;;;;;;5014012;28;20251;-76
2023/09/12 07:59:48;;;;;;;5.78;2.88;;;19.20;99.90;;;;;;5031010;28;20178;-77
2023/09/12 08:02:14;;;;;;;6.97;3.00;;;19.30;99.90;;;;;;5017494;28;20625;-78
2023/09/12 08:04:40;;;;;;;7.68;2.67;;;;;;;;;;5031435;28;20181;-78
2023/09/12 08:07:06;;;;;;;4.05;2.58;;;19.30;99.90;;;;;;5031167;28;20177;-76
2023/09/12 08:09:55;;;;;;;5.03;2.42;;;19.20;99.90;;;;;;5013240;28;20217;-77
2023/09/12 08:12:21;;;;;;;5.10;2.33;;;19.30;99.90;;;;;;5031247;28;20177;-77
2023/09/12 08:14:47;;;;;;;4.43;2.50;;;19.30;99.90;;;;;;5031107;28;20172;-77
2023/09/12 08:17:14;;;;;;;6.13;2.33;;;19.30;99.90;;;;;;5014884;28;20182;-76
2023/09/12 08:19:40;;;;;;;4.55;2.10;;;19.30;99.90;;;;;;5031295;28;20206;-76
2023/09/12 08:22:07;;;;;;;10.10;2.20;;;19.90;99.90;;;;;;5030719;28;20282;-76
2023/09/12 08:24:33;;;;;;;4.15;2.20;;;19.30;99.90;;;;;;5046924;28;20173;-75
2023/09/12 08:26:59;;;;;;;3.03;1.60;;;19.30;99.90;;;;;;5032215;28;20186;-77
2023/09/12 08:29:25;;;;;;;5.68;1.85;;;19.30;99.90;;;;;;5013271;28;20205;-76
2023/09/12 08:31:50;;;;;;;3.83;2.00;;;19.40;99.90;;;;;;5031302;28;20177;-76
2023/09/12 08:34:16;;;;;;;6.43;1.90;;;19.40;99.90;;;;;;5031091;28;20982;-76
2023/09/12 08:36:42;;;;;;;4.45;1.70;;;19.60;99.90;;;;;;5013265;28;20272;-77
2023/09/12 08:39:12;;;;;;;3.47;1.63;;;19.80;99.90;;;;;;5012270;28;20228;-77
2023/09/12 08:41:38;;;;;;;6.22;2.03;;;19.80;99.90;;;;;;5030468;28;20633;-77
2023/09/12 08:44:05;;;;;;;2.45;1.55;;;19.80;99.90;;;;;;5030877;28;20169;-75
2023/09/12 08:46:31;;;;;;;4.60;1.58;;;19.80;99.90;;;;;;5030334;28;20283;-76
2023/09/12 08:48:58;;;;;;;3.67;1.60;;;19.90;99.90;;;;;;5012760;28;20649;-76
2023/09/12 08:51:23;;;;;;;3.40;1.70;;;20.00;99.90;;;;;;5034748;28;20231;-75
2023/09/12 08:53:52;;;;;;;3.55;1.85;;;20.00;99.90;;;;;;5019296;28;20181;-76
2023/09/12 08:56:18;;;;;;;3.50;1.42;;;20.00;99.90;;;;;;5016160;28;20189;-75
2023/09/12 08:58:44;;;;;;;5.50;1.77;;;20.00;99.90;;;;;;5036633;28;20186;-76
2023/09/12 09:01:13;;;;;;;4.38;1.58;;;20.00;99.90;;;;;;5037329;28;20667;-76
2023/09/12 09:03:41;;;;;;;5.43;1.45;;;19.90;99.90;;;;;;5037396;28;20218;-76
2023/09/12 09:06:09;;;;;;;3.17;1.83;;;20.00;99.90;;;;;;5037656;28;20177;-76
2023/09/12 09:08:35;;;;;;;4.93;1.65;;;20.10;99.90;;;;;;5019359;28;20221;-76
2023/09/12 09:11:06;;;;;;;3.08;1.17;;;20.10;99.90;;;;;;5037315;28;20188;-76
2023/09/12 09:13:32;;;;;;;3.17;1.70;;;20.10;99.90;;;;;;5037022;28;20754;-76
2023/09/12 09:16:15;;;;;;;3.88;1.52;;;20.20;99.90;;;;;;5036473;28;20391;-76
2023/09/12 09:18:54;;;;;;;2.63;1.50;;;20.10;99.90;;;;;;5035202;28;20315;-76
2023/09/12 09:21:25;;;;;;;5.20;1.60;;;20.00;99.90;;;;;;5017995;28;20320;-76
2023/09/12 09:23:52;;;;;;;6.97;1.63;;;20.10;99.90;;;;;;5036244;28;20189;-75
2023/09/12 09:26:18;;;;;;;2.97;1.50;;;19.80;99.90;;;;;;5036405;28;20217;-76
2023/09/12 09:28:43;;;;;;;2.15;1.10;;;19.80;99.90;;;;;;5036032;28;20209;-76
2023/09/12 09:31:13;;;;;;;1.02;0.60;;;19.20;99.90;;;;;;5019194;28;20180;-75
2023/09/12 09:33:40;;;;;;;1.73;0.50;;;19.20;99.90;;;;;;5036232;28;20597;-77
2023/09/12 09:36:07;;;;;;;0.43;0.30;;;18.70;99.90;;;;;;5036947;28;20205;-75
2023/09/12 09:38:36;;;;;;;1.08;0.38;;;18.70;99.90;;;;;;5037079;28;20236;-75
2023/09/12 09:41:06;;;;;;;1.67;0.30;;;18.60;99.90;;;;;;5037032;28;20170;-74
2023/09/12 09:43:32;;;;;;;2.10;0.28;;;18.50;99.90;;;;;;5019913;28;20184;-76
2023/09/12 09:45:58;;;;;;;0.80;0.40;;;18.40;99.90;;;;;;5039010;28;20271;-76
2023/09/12 09:48:26;;;;;;;0.20;0.10;;;18.40;99.90;;;;;;5039077;28;20600;-76
2023/09/12 09:50:53;;;;;;;0.90;0.17;;;18.40;99.90;;;;;;5037607;28;20197;-76
2023/09/12 09:53:26;;;;;;;0.45;0.20;;;18.50;99.90;;;;;;5036443;28;20235;-75
2023/09/12 09:55:52;;;;;;;0.75;0.08;;;18.70;99.90;;;;;;5036926;28;20173;-76
2023/09/12 09:58:17;;;;;;;0.95;0.20;;;18.60;99.90;;;;;;5002527;28;20547;-76
2023/09/12 10:00:43;;;;;;;0.52;0.20;;;18.60;99.90;;;;;;5019027;28;20166;-75
2023/09/12 10:03:12;;;;;;;0.20;0.15;;;18.80;99.90;;;;;;5014262;28;20185;-77
2023/09/12 10:05:38;;;;;;;0.63;0.20;;;18.90;99.90;;;;;;5033447;28;20174;-76
2023/09/12 10:08:06;;;;;;;0.45;0.30;;;19.10;99.90;;;;;;5032383;28;20185;-76
2023/09/12 10:10:34;;;;;;;1.05;0.28;;;19.10;99.90;;;;;;5032244;28;20201;-77
2023/09/12 10:13:03;;;;;;;0.95;0.30;;;19.10;99.90;;;;;;5033382;28;20203;-77
2023/09/12 10:15:33;;;;;;;1.73;0.50;;;19.10;99.90;;;;;;5015441;28;20181;-77
2023/09/12 10:18:04;;;;;;;2.20;0.40;;;19.20;99.90;;;;;;5033384;28;20174;-77
2023/09/12 10:20:49;;;;;;;1.17;0.50;;;19.40;99.90;;;;;;5015627;28;20712;-77
2023/09/12 10:23:23;;;;;;;0.68;0.30;;;19.20;99.90;;;;;;5033745;28;20223;-77
2023/09/12 10:25:50;;;;;;;1.15;0.30;;;19.30;99.90;;;;;;5015222;28;20222;-77
2023/09/12 10:28:17;;;;;;;1.30;0.30;;;19.20;99.90;;;;;;5014329;28;20228;-77
2023/09/12 10:30:43;;;;;;;0.95;0.50;;;19.40;99.90;;;;;;5033143;28;20637;-78
2023/09/12 10:33:10;;;;;;;1.08;0.50;;;19.80;99.90;;;;;;5015470;28;20188;-76
2023/09/12 10:35:38;;;;;;;1.67;0.57;;;20.20;99.90;;;;;;5032797;28;20170;-76
2023/09/12 10:38:07;;;;;;;1.13;0.40;;;20.20;99.90;;;;;;4995516;28;20178;-76
2023/09/12 10:40:36;;;;;;;1.75;0.52;;;19.20;99.90;;;;;;5035959;28;20177;-75
2023/09/12 10:43:05;;;;;;;1.92;0.52;;;20.60;99.90;;;;;;5017354;28;20555;-76
2023/09/12 10:45:32;;;;;;;1.58;0.40;;;20.50;99.90;;;;;;5015588;28;20177;-75
2023/09/12 10:47:58;;;;;;;2.08;0.50;;;20.50;99.90;;;;;;5014412;28;20193;-76
2023/09/12 10:50:24;;;;;;;2.45;0.57;;;20.50;99.90;;;;;;5014642;28;20259;-76
2023/09/12 10:52:50;;;;;;;1.90;0.50;;;20.70;99.90;;;;;;5032827;28;20186;-75
2023/09/12 10:55:18;;;;;;;1.30;0.57;;;21.10;99.90;;;;;;5014369;28;20240;-74
2023/09/12 10:58:04;;;;;;;1.90;0.52;;;21.00;99.90;;;;;;5032549;28;20177;-73
2023/09/12 11:00:32;;;;;;;4.30;0.75;;;21.00;99.90;;;;;;5032622;28;20196;-74
2023/09/12 11:03:00;;;;;;;0.98;0.50;;;21.00;99.90;;;;;;5032695;28;20181;-74
2023/09/12 11:05:28;;;;;;;1.23;0.60;;;21.00;99.90;;;;;;5032864;28;20177;-74
2023/09/12 11:08:03;;;;;;;1.65;0.50;;;20.80;99.90;;;;;;5032594;28;20182;-74
2023/09/12 11:10:31;;;;;;;2.50;0.70;;;20.70;99.90;;;;;;5032379;28;20201;-74
2023/09/12 11:12:57;;;;;;;2.40;0.80;;;20.90;99.90;;;;;;5014621;28;20181;-74
2023/09/12 11:15:31;;;;;;;1.67;0.70;;;21.10;99.90;;;;;;5031308;28;20189;-74
2023/09/12 11:18:06;;;;;;;1.63;0.55;;;21.20;99.90;;;;;;5032407;28;20651;-75
2023/09/12 11:21:03;;;;;;;1.75;0.60;;;21.10;99.90;;;;;;5014524;28;20170;-74
2023/09/12 11:23:29;;;;;;;2.42;0.60;;;20.90;99.90;;;;;;5032296;28;20185;-74
2023/09/12 11:26:08;;;;;;;0.80;0.50;;;21.00;99.90;;;;;;5031990;28;20253;-75
2023/09/12 11:28:34;;;;;;;1.30;0.70;;;21.00;99.90;;;;;;5031946;28;20206;-75
2023/09/12 11:31:00;;;;;;;2.90;1.00;;;21.10;99.90;;;;;;5014280;28;20231;-75
2023/09/12 11:33:26;;;;;;;2.67;0.80;;;21.30;99.90;;;;;;5031898;28;20166;-74
2023/09/12 11:35:57;;;;;;;2.65;0.60;;;21.40;99.90;;;;;;5032025;28;20169;-73
2023/09/12 11:38:31;;;;;;;1.98;0.60;;;21.50;99.90;;;;;;5031924;28;20577;-74
2023/09/12 11:40:57;;;;;;;1.00;0.50;;;21.70;99.90;;;;;;5031960;28;20170;-74
2023/09/12 11:43:25;;;;;;;1.77;0.40;;;20.00;99.90;;;;;;5031830;28;20227;-74
2023/09/12 11:45:52;;;;;;;1.08;0.43;;;21.90;99.90;;;;;;5031901;28;20178;-74
2023/09/12 11:48:18;;;;;;;1.33;0.70;;;21.90;99.90;;;;;;5031771;28;20174;-74
2023/09/12 11:50:51;;;;;;;2.55;0.63;;;21.80;99.90;;;;;;5031824;28;20207;-74
2023/09/12 11:53:25;;;;;;;3.03;0.45;;;21.60;99.90;;;;;;5031600;28;20640;-74
2023/09/12 11:55:57;;;;;;;1.58;0.60;;;21.60;99.90;;;;;;5031553;28;20197;-74
2023/09/12 11:58:24;;;;;;;4.28;0.60;;;21.90;99.90;;;;;;5031306;28;20170;-74
2023/09/12 12:00:53;;;;;;;4.35;0.55;;;22.20;99.90;;;;;;5031689;28;20174;-74
2023/09/12 12:03:21;;;;;;;3.75;0.70;;;22.20;99.90;;;;;;5029268;28;20228;-74
2023/09/12 12:05:47;;;;;;;0.82;0.45;;;;;;;;;;5031364;28;20265;-74
2023/09/12 12:08:15;;;;;;;3.92;0.60;;;22.70;99.90;;;;;;5031227;28;20276;-74
2023/09/12 12:10:41;;;;;;;2.88;0.80;;;22.70;99.90;;;;;;5031190;28;20587;-74
2023/09/12 12:13:11;;;;;;;4.03;1.00;;;22.50;99.90;;;;;;5031208;28;20172;-74
2023/09/12 12:15:37;;;;;;;3.42;0.60;;;22.60;99.90;;;;;;5031152;28;20168;-74
2023/09/12 12:18:03;;;;;;;2.92;0.80;;;22.40;99.90;;;;;;5031360;28;20256;-74
2023/09/12 12:20:30;;;;;;;1.73;0.57;;;22.50;99.90;;;;;;5031321;28;20220;-75
2023/09/12 12:22:56;;;;;;;4.10;0.40;;;22.80;99.90;;;;;;5030960;28;20178;-75
2023/09/12 12:25:22;;;;;;;2.70;0.63;;;23.00;99.90;;;;;;5030521;28;20727;-73
2023/09/12 12:27:48;;;;;;;4.35;0.85;;;;;;;;;;5030974;28;20235;-74
2023/09/12 12:30:14;;;;;;;4.75;1.00;;;23.50;99.90;;;;;;5029676;28;20702;-74
2023/09/12 12:32:46;;;;;;;2.47;0.70;;;23.60;99.90;;;;;;5030657;28;20204;-74
2023/09/12 12:35:22;;;;;;;1.98;0.60;;;23.60;99.90;;;;;;5030830;28;20185;-75
2023/09/12 12:37:53;;;;;;;5.30;0.73;;;23.40;99.90;;;;;;5030625;28;20169;-78
2023/09/12 12:40:19;;;;;;;1.70;0.50;;;24.00;99.90;;;;;;5013176;28;20237;-76
2023/09/12 12:42:48;;;;;;;1.98;0.40;;;24.50;99.90;;;;;;5013093;28;20668;-75
2023/09/12 12:45:23;;;;;;;3.92;0.52;;;24.40;99.90;;;;;;5031003;28;20174;-75
2023/09/12 12:47:57;;;;;;;1.58;0.57;;;24.40;1.00;;;;;;5030958;28;20180;-81
2023/09/12 12:50:22;;;;;;;3.65;0.55;;;24.00;1.00;;;;;;5030887;28;20209;-78